Time;durP1;ratioP1;P1;durP2;ratioP2;P2;SDS_P1;SDS_P2;PMS_P1;PMS_P2;Temp;Humidity;BMP_temperature;BMP_pressure;BME280_temperature;BME280_humidity;BME280_pressure;Samples;Min_cycle;Max_cycle;Signal;HPM_P1;HPM_P2
2022/07/18 00:01:00;;;;;;;3.50;3.20;;;;;;;;;;5050669;28;20498;-68
2022/07/18 00:03:25;;;;;;;3.55;3.28;;;;;;;;;;5049973;28;20055;-68
2022/07/18 00:05:51;;;;;;;3.15;2.95;;;;;;;;;;5050101;28;20468;-69
2022/07/18 00:08:16;;;;;;;4.15;3.00;;;;;;;;;;5048674;28;20040;-67
2022/07/18 00:10:41;;;;;;;3.03;2.70;;;;;;;;;;5034441;28;20040;-70
2022/07/18 00:13:06;;;;;;;3.65;3.22;;;;;;;;;;5050351;28;20454;-68
2022/07/18 00:15:32;;;;;;;2.88;2.67;;;;;;;;;;5054302;28;20086;-68
2022/07/18 00:17:57;;;;;;;3.20;2.95;;;;;;;;;;5053096;28;20021;-68
2022/07/18 00:20:22;;;;;;;3.80;3.15;;;;;;;;;;5053671;28;20427;-69
2022/07/18 00:22:48;;;;;;;2.60;2.50;;;;;;;;;;5055076;28;20025;-68
2022/07/18 00:25:14;;;;;;;3.00;2.80;;;;;;;;;;5055425;28;20118;-69
2022/07/18 00:27:39;;;;;;;3.13;2.85;;;;;;;;;;5052216;28;20045;-68
2022/07/18 00:30:04;;;;;;;2.72;2.50;;;;;;;;;;5037844;28;20477;-69
2022/07/18 00:32:30;;;;;;;3.28;2.97;;;;;;;;;;5053930;28;20040;-68
2022/07/18 00:34:55;;;;;;;3.83;2.83;;;;;;;;;;5052921;28;20021;-68
2022/07/18 00:37:20;;;;;;;2.85;2.65;;;;;;;;;;5055393;28;20048;-68
2022/07/18 00:39:45;;;;;;;2.85;2.65;;;;;;;;;;5052694;28;20048;-70
2022/07/18 00:42:11;;;;;;;3.10;2.80;;;;;;;;;;5053504;28;20032;-69
2022/07/18 00:44:36;;;;;;;6.60;2.72;;;;;;;;;;5038807;28;20378;-68
2022/07/18 00:47:02;;;;;;;3.10;2.88;;;;;;;;;;5037655;28;20031;-67
2022/07/18 00:49:28;;;;;;;2.80;2.60;;;;;;;;;;5053505;28;20537;-71
2022/07/18 00:51:54;;;;;;;2.63;2.50;;;;;;;;;;5052941;28;20342;-67
2022/07/18 00:54:19;;;;;;;3.80;3.40;;;;;;;;;;5051069;28;20390;-68
2022/07/18 00:56:45;;;;;;;3.60;3.25;;;;;;;;;;5052912;28;20028;-67
2022/07/18 00:59:11;;;;;;;3.38;2.47;;;;;;;;;;5053513;28;20051;-69
2022/07/18 01:01:42;;;;;;;3.47;2.88;;;;;;;;;;5037198;28;20115;-67
2022/07/18 01:04:08;;;;;;;3.03;2.78;;;;;;;;;;5053032;28;20094;-68
2022/07/18 01:06:33;;;;;;;4.35;2.90;;;;;;;;;;5052768;28;20021;-68
2022/07/18 01:08:59;;;;;;;3.15;2.85;;;;;;;;;;5053305;28;20525;-68
2022/07/18 01:11:24;;;;;;;4.80;3.28;;;;;;;;;;5036376;28;20399;-66
2022/07/18 01:13:50;;;;;;;3.05;2.75;;;;;;;;;;5055212;28;20032;-68
2022/07/18 01:16:16;;;;;;;3.15;2.92;;;;;;;;;;5052541;28;20025;-69
2022/07/18 01:18:49;;;;;;;3.33;2.53;;;;;;;;;;5052455;28;20120;-69
2022/07/18 01:21:14;;;;;;;3.47;3.22;;;;;;;;;;5051284;28;20388;-69
2022/07/18 01:23:39;;;;;;;3.00;2.80;;;;;;;;;;5054427;28;20029;-69
2022/07/18 01:26:05;;;;;;;3.53;3.22;;;;;;;;;;5051301;28;20025;-67
2022/07/18 01:28:30;;;;;;;3.22;2.90;;;;;;;;;;5052137;28;20029;-67
2022/07/18 01:30:55;;;;;;;3.55;3.28;;;;;;;;;;5052010;28;20348;-69
2022/07/18 01:33:21;;;;;;;2.78;2.58;;;;;;;;;;5052829;28;20111;-67
2022/07/18 01:35:46;;;;;;;3.33;3.03;;;;;;;;;;5052400;28;20016;-68
2022/07/18 01:38:12;;;;;;;3.60;3.10;;;;;;;;;;5052763;28;20528;-69
2022/07/18 01:40:37;;;;;;;3.15;2.92;;;;;;;;;;5052292;28;20027;-68
2022/07/18 01:43:02;;;;;;;3.13;2.90;;;;;;;;;;5053548;28;20040;-69
2022/07/18 01:45:28;;;;;;;3.20;3.00;;;;;;;;;;5050042;28;20509;-69
2022/07/18 01:47:53;;;;;;;4.53;3.15;;;;;;;;;;5050973;28;20028;-69
2022/07/18 01:50:20;;;;;;;7.13;2.95;;;;;;;;;;5052002;28;20045;-68
2022/07/18 01:52:45;;;;;;;3.33;3.13;;;;;;;;;;5053031;28;20489;-69
2022/07/18 01:55:11;;;;;;;3.55;2.55;;;;;;;;;;5052935;28;20056;-69
2022/07/18 01:57:36;;;;;;;2.90;2.65;;;;;;;;;;5051299;28;20033;-68
2022/07/18 02:00:02;;;;;;;3.35;2.75;;;;;;;;;;5052323;28;20389;-67
2022/07/18 02:02:28;;;;;;;3.17;2.85;;;;;;;;;;5051458;28;20021;-68
2022/07/18 02:04:59;;;;;;;3.60;3.25;;;;;;;;;;5050557;28;20039;-69
2022/07/18 02:07:24;;;;;;;2.65;2.45;;;;;;;;;;5051157;28;20116;-69
2022/07/18 02:09:49;;;;;;;3.25;2.97;;;;;;;;;;5051372;28;20040;-68
2022/07/18 02:12:15;;;;;;;3.28;3.08;;;;;;;;;;5051094;28;20024;-67
2022/07/18 02:14:40;;;;;;;4.72;3.13;;;;;;;;;;5049567;28;20090;-68
2022/07/18 02:17:05;;;;;;;3.75;3.00;;;;;;;;;;5051675;28;20102;-68
2022/07/18 02:19:30;;;;;;;5.15;3.10;;;;;;;;;;5032038;28;20090;-68
2022/07/18 02:21:56;;;;;;;3.60;2.55;;;;;;;;;;5052272;28;20467;-69
2022/07/18 02:24:21;;;;;;;2.90;2.70;;;;;;;;;;5051126;28;20057;-68
2022/07/18 02:26:46;;;;;;;4.03;3.35;;;;;;;;;;5050876;28;20398;-67
2022/07/18 02:29:11;;;;;;;2.92;2.67;;;;;;;;;;5051206;28;20070;-67
2022/07/18 02:31:37;;;;;;;3.47;2.85;;;;;;;;;;5052394;28;20163;-69
2022/07/18 02:34:09;;;;;;;3.00;2.80;;;;;;;;;;5051841;28;20364;-68
2022/07/18 02:36:35;;;;;;;3.05;2.85;;;;;;;;;;5050679;28;20024;-68
2022/07/18 02:39:00;;;;;;;2.75;2.63;;;;;;;;;;5050714;28;20462;-68
2022/07/18 02:41:25;;;;;;;3.20;2.90;;;;;;;;;;5050142;28;20094;-68
2022/07/18 02:43:51;;;;;;;4.75;3.00;;;;;;;;;;5050525;28;20537;-68
2022/07/18 02:46:16;;;;;;;5.25;3.35;;;;;;;;;;5051033;28;20025;-68
2022/07/18 02:48:41;;;;;;;3.17;2.88;;;;;;;;;;5048777;28;20041;-68
2022/07/18 02:51:06;;;;;;;3.58;2.85;;;;;;;;;;5051500;28;20053;-68
2022/07/18 02:53:32;;;;;;;7.63;3.10;;;;;;;;;;5053186;28;20021;-69
2022/07/18 02:55:58;;;;;;;3.45;2.60;;;;;;;;;;5049725;28;20020;-68
2022/07/18 02:58:23;;;;;;;3.00;2.80;;;;;;;;;;5050149;28;20395;-69
2022/07/18 03:00:48;;;;;;;3.55;3.22;;;;;;;;;;5051489;28;20029;-68
2022/07/18 03:03:14;;;;;;;3.45;2.75;;;;;;;;;;5050195;28;20033;-68
2022/07/18 03:05:39;;;;;;;6.72;3.13;;;;;;;;;;5051509;28;20439;-69
2022/07/18 03:08:05;;;;;;;3.10;2.90;;;;;;;;;;5050233;28;20024;-68
2022/07/18 03:10:30;;;;;;;4.43;3.05;;;;;;;;;;5049542;28;20690;-68
2022/07/18 03:12:55;;;;;;;3.60;3.28;;;;;;;;;;5048070;28;20036;-68
2022/07/18 03:15:20;;;;;;;3.97;3.15;;;;;;;;;;5048905;28;20039;-68
2022/07/18 03:17:46;;;;;;;3.83;2.90;;;;;;;;;;5049859;28;20078;-69
2022/07/18 03:20:11;;;;;;;3.03;2.65;;;;;;;;;;5031546;28;20031;-68
2022/07/18 03:22:36;;;;;;;3.20;2.90;;;;;;;;;;5051461;28;20376;-69
2022/07/18 03:25:02;;;;;;;3.42;2.60;;;;;;;;;;5049318;28;20020;-69
2022/07/18 03:27:27;;;;;;;3.83;3.00;;;;;;;;;;5049537;28;20040;-70
2022/07/18 03:29:52;;;;;;;3.28;3.08;;;;;;;;;;5049884;28;20037;-69
2022/07/18 03:32:18;;;;;;;5.00;2.67;;;;;;;;;;5050552;28;20078;-69
2022/07/18 03:34:43;;;;;;;3.28;3.05;;;;;;;;;;5051238;28;20036;-70
2022/07/18 03:37:08;;;;;;;3.00;2.80;;;;;;;;;;5041648;28;20111;-69
2022/07/18 03:39:33;;;;;;;3.65;2.75;;;;;;;;;;5047904;28;20082;-69
2022/07/18 03:41:59;;;;;;;3.40;2.42;;;;;;;;;;5049367;28;20112;-68
2022/07/18 03:44:24;;;;;;;4.30;2.60;;;;;;;;;;5049425;28;20063;-68
2022/07/18 03:46:51;;;;;;;3.05;2.70;;;;;;;;;;5050445;28;20083;-68
2022/07/18 03:49:16;;;;;;;4.22;2.88;;;;;;;;;;5035256;28;20036;-67
2022/07/18 03:51:42;;;;;;;5.32;2.55;;;;;;;;;;5055006;28;20035;-67
2022/07/18 03:54:09;;;;;;;2.92;2.55;;;;;;;;;;5055120;28;20029;-67
2022/07/18 03:56:34;;;;;;;5.30;2.60;;;;;;;;;;5039236;28;20051;-69
2022/07/18 03:59:00;;;;;;;2.85;2.55;;;;;;;;;;5034996;28;20434;-69
2022/07/18 04:01:25;;;;;;;3.28;2.33;;;;;;;;;;5053149;28;20028;-68
2022/07/18 04:03:50;;;;;;;4.18;3.05;;;;;;;;;;5054278;28;20112;-70
2022/07/18 04:06:15;;;;;;;2.88;2.50;;;;;;;;;;5054751;28;20025;-70
2022/07/18 04:08:41;;;;;;;2.42;2.22;;;;;;;;;;5053219;28;20520;-69
2022/07/18 04:11:06;;;;;;;3.95;2.22;;;;;;;;;;5053426;28;20036;-69
2022/07/18 04:13:31;;;;;;;4.35;2.40;;;;;;;;;;5055924;28;20040;-69
2022/07/18 04:15:56;;;;;;;2.50;2.30;;;;;;;;;;5055944;28;20516;-69
2022/07/18 04:18:22;;;;;;;2.60;2.40;;;;;;;;;;5053219;28;20036;-69
2022/07/18 04:20:47;;;;;;;2.33;2.20;;;;;;;;;;5052984;28;20030;-69
2022/07/18 04:23:12;;;;;;;2.78;2.58;;;;;;;;;;5053141;28;20032;-68
2022/07/18 04:25:38;;;;;;;2.55;2.40;;;;;;;;;;5034670;28;20029;-69
2022/07/18 04:28:04;;;;;;;3.03;2.80;;;;;;;;;;5051925;28;20048;-69
2022/07/18 04:30:30;;;;;;;2.85;2.45;;;;;;;;;;5035611;28;20563;-69
2022/07/18 04:32:55;;;;;;;3.30;2.92;;;;;;;;;;5054553;28;20020;-69
2022/07/18 04:35:22;;;;;;;2.58;2.35;;;;;;;;;;5055706;28;20017;-68
2022/07/18 04:37:47;;;;;;;2.85;2.65;;;;;;;;;;5053966;28;20083;-68
2022/07/18 04:40:12;;;;;;;3.45;2.38;;;;;;;;;;5052535;28;20064;-69
2022/07/18 04:42:37;;;;;;;4.05;2.38;;;;;;;;;;5054408;28;20021;-69
2022/07/18 04:45:04;;;;;;;2.50;2.28;;;;;;;;;;5054627;28;20032;-69
2022/07/18 04:47:30;;;;;;;2.72;2.40;;;;;;;;;;5053065;28;20048;-68
2022/07/18 04:49:55;;;;;;;3.38;2.35;;;;;;;;;;5052035;28;20167;-69
2022/07/18 04:52:20;;;;;;;2.97;2.47;;;;;;;;;;5053126;28;20071;-69
2022/07/18 04:54:46;;;;;;;3.45;2.80;;;;;;;;;;5053327;28;20078;-69
2022/07/18 04:57:14;;;;;;;3.15;2.83;;;;;;;;;;5053311;28;20044;-69
2022/07/18 04:59:39;;;;;;;2.63;2.42;;;;;;;;;;5053899;28;20034;-70
2022/07/18 05:02:05;;;;;;;2.30;2.20;;;;;;;;;;5052068;28;20074;-69
2022/07/18 05:04:30;;;;;;;3.45;2.15;;;;;;;;;;5052213;28;20108;-69
2022/07/18 05:06:55;;;;;;;3.15;2.45;;;;;;;;;;5050440;28;20491;-69
2022/07/18 05:09:21;;;;;;;2.80;2.60;;;;;;;;;;5050890;28;20024;-69
2022/07/18 05:11:46;;;;;;;5.45;3.30;;;;;;;;;;5053155;28;20032;-69
2022/07/18 05:14:13;;;;;;;3.30;2.50;;;;;;;;;;5033669;28;20040;-68
2022/07/18 05:16:38;;;;;;;2.80;2.60;;;;;;;;;;5034902;28;20116;-69
2022/07/18 05:19:03;;;;;;;3.67;2.85;;;;;;;;;;5051833;28;20033;-68
2022/07/18 05:21:30;;;;;;;2.80;2.60;;;;;;;;;;5053111;28;20752;-69
2022/07/18 05:23:55;;;;;;;5.00;2.78;;;;;;;;;;5053311;28;20028;-70
2022/07/18 05:26:20;;;;;;;2.85;2.65;;;;;;;;;;5052437;28;20511;-69
2022/07/18 05:28:46;;;;;;;3.25;3.03;;;;;;;;;;5052547;28;20049;-69
2022/07/18 05:31:11;;;;;;;2.75;2.55;;;;;;;;;;5053191;28;20109;-69
2022/07/18 05:33:36;;;;;;;3.20;2.22;;;;;;;;;;5052454;28;20050;-69
2022/07/18 05:36:02;;;;;;;5.10;2.92;;;;;;;;;;5052691;28;20031;-69
2022/07/18 05:38:27;;;;;;;3.17;2.58;;;;;;;;;;5052929;28;20215;-69
2022/07/18 05:40:52;;;;;;;2.60;2.40;;;;;;;;;;5052545;28;20671;-69
2022/07/18 05:43:17;;;;;;;6.05;3.03;;;;;;;;;;5035586;28;20097;-69
2022/07/18 05:45:43;;;;;;;2.97;2.78;;;;;;;;;;5053087;28;20031;-69
2022/07/18 05:48:08;;;;;;;2.90;2.42;;;;;;;;;;5051467;28;20074;-69
2022/07/18 05:50:33;;;;;;;3.33;2.22;;;;;;;;;;5051153;28;20045;-69
2022/07/18 05:52:58;;;;;;;2.67;2.47;;;;;;;;;;5053315;28;20078;-70
2022/07/18 05:55:24;;;;;;;2.90;2.67;;;;;;;;;;5052999;28;20021;-69
2022/07/18 05:57:53;;;;;;;2.85;2.65;;;;;;;;;;5051950;28;20118;-67
2022/07/18 06:00:18;;;;;;;2.85;2.50;;;;;;;;;;5033603;28;20160;-69
2022/07/18 06:02:44;;;;;;;3.00;2.80;;;;;;;;;;5052663;28;20635;-69
2022/07/18 06:05:09;;;;;;;2.67;2.47;;;;;;;;;;5053466;28;20033;-69
2022/07/18 06:07:35;;;;;;;2.63;2.53;;;;;;;;;;5051606;28;20055;-69
2022/07/18 06:10:00;;;;;;;8.15;3.33;;;;;;;;;;5051014;28;20060;-68
2022/07/18 06:12:28;;;;;;;3.33;2.83;;;;;;;;;;5051048;28;20075;-69
2022/07/18 06:14:53;;;;;;;5.05;2.45;;;;;;;;;;5053601;28;20029;-69
2022/07/18 06:17:18;;;;;;;4.38;2.47;;;;;;;;;;5051650;28;20040;-69
2022/07/18 06:19:44;;;;;;;4.28;2.70;;;;;;;;;;5048494;28;20028;-70
2022/07/18 06:22:09;;;;;;;4.07;2.50;;;;;;;;;;5052398;28;20070;-69
2022/07/18 06:24:35;;;;;;;2.60;2.40;;;;;;;;;;5052816;28;20678;-68
2022/07/18 06:27:01;;;;;;;5.85;2.50;;;;;;;;;;5051281;28;20028;-68
2022/07/18 06:29:26;;;;;;;2.67;2.47;;;;;;;;;;5050306;28;20045;-69
2022/07/18 06:31:52;;;;;;;4.65;3.05;;;;;;;;;;5051808;28;20028;-69
2022/07/18 06:34:17;;;;;;;2.83;2.63;;;;;;;;;;5050370;28;20032;-69
2022/07/18 06:36:42;;;;;;;3.17;2.72;;;;;;;;;;5050593;28;20028;-68
2022/07/18 06:39:11;;;;;;;2.95;2.22;;;;;;;;;;5049362;28;20410;-69
2022/07/18 06:41:39;;;;;;;2.88;2.03;;;;;;;;;;5073923;28;20034;-69
2022/07/18 06:44:05;;;;;;;5.60;2.72;;;;;;;;;;5071841;28;20032;-69
2022/07/18 06:46:30;;;;;;;3.42;3.15;;;;;;;;;;5071339;28;20036;-68
2022/07/18 06:48:56;;;;;;;2.97;2.33;;;;;;;;;;5070768;28;20415;-69
2022/07/18 06:51:21;;;;;;;3.35;2.70;;;;;;;;;;5071161;28;20109;-69
2022/07/18 06:53:46;;;;;;;3.22;2.20;;;;;;;;;;5071399;28;20628;-69
2022/07/18 06:56:14;;;;;;;5.35;2.45;;;;;;;;;;5071827;28;20056;-69
2022/07/18 06:58:39;;;;;;;2.20;2.10;;;;;;;;;;5069532;28;20115;-69
2022/07/18 07:01:06;;;;;;;2.50;2.30;;;;;;;;;;5069349;28;20522;-70
2022/07/18 07:03:32;;;;;;;5.13;2.90;;;;;;;;;;5070926;28;20028;-70
2022/07/18 07:05:57;;;;;;;3.65;1.95;;;;;;;;;;5071711;28;20729;-69
2022/07/18 07:08:22;;;;;;;2.42;2.20;;;;;;;;;;5070401;28;20048;-69
2022/07/18 07:10:47;;;;;;;2.50;1.67;;;;;;;;;;5070296;28;20515;-68
2022/07/18 07:13:25;;;;;;;3.30;2.20;;;;;;;;;;5073268;28;20031;-71
2022/07/18 07:16:35;;;;;;;6.40;1.90;;;;;;;;;;5068047;28;20025;-70
2022/07/18 07:18:36;;;;;;;4.30;2.30;;;;;;;;;;5055876;28;20047;-70
2022/07/18 07:21:01;;;;;;;3.28;2.03;;;;;;;;;;5069461;28;20036;-69
2022/07/18 07:23:29;;;;;;;2.45;2.03;;;;;;;;;;5072728;28;20437;-70
2022/07/18 07:25:55;;;;;;;4.25;1.95;;;;;;;;;;5069582;28;20028;-69
2022/07/18 07:28:20;;;;;;;2.08;1.98;;;;;;;;;;5070203;28;20428;-70
2022/07/18 07:30:45;;;;;;;2.53;2.33;;;;;;;;;;5068170;28;20062;-69
2022/07/18 07:33:11;;;;;;;2.35;2.20;;;;;;;;;;5072072;28;20029;-68
2022/07/18 07:35:36;;;;;;;7.07;2.22;;;;;;;;;;5071153;28;20115;-70
2022/07/18 07:38:01;;;;;;;4.55;2.40;;;;;;;;;;5069422;28;20067;-70
2022/07/18 07:40:27;;;;;;;4.57;2.30;;;;;;;;;;5050637;28;20035;-69
2022/07/18 07:43:04;;;;;;;6.60;2.30;;;;;;;;;;5049831;28;20083;-69
2022/07/18 07:45:29;;;;;;;4.85;2.22;;;;;;;;;;5049508;28;20052;-70
2022/07/18 07:47:54;;;;;;;3.58;1.70;;;;;;;;;;5050872;28;20124;-69
2022/07/18 07:50:20;;;;;;;2.28;2.17;;;;;;;;;;5032391;28;20109;-69
2022/07/18 07:52:45;;;;;;;5.47;2.40;;;;;;;;;;5051305;28;20021;-68
2022/07/18 07:55:11;;;;;;;4.35;2.33;;;;;;;;;;5050522;28;20040;-69
2022/07/18 07:57:36;;;;;;;5.07;2.60;;;;;;;;;;5049625;28;20037;-69
2022/07/18 08:00:03;;;;;;;2.88;2.30;;;;;;;;;;5049900;28;20124;-69
2022/07/18 08:02:28;;;;;;;6.18;2.20;;;;;;;;;;5050848;28;20123;-69
2022/07/18 08:04:53;;;;;;;6.00;2.90;;;;;;;;;;5050298;28;20073;-69
2022/07/18 08:07:20;;;;;;;7.45;2.50;;;;;;;;;;5033671;28;20044;-70
2022/07/18 08:09:45;;;;;;;8.10;2.67;;;;;;;;;;5051684;28;20032;-69
2022/07/18 08:12:11;;;;;;;5.35;2.40;;;;;;;;;;5049473;28;20032;-69
2022/07/18 08:14:39;;;;;;;4.13;2.38;;;;;;;;;;5049389;28;20025;-68
2022/07/18 08:17:05;;;;;;;5.88;2.30;;;;;;;;;;5049160;28;20102;-70
2022/07/18 08:19:30;;;;;;;4.60;2.42;;;;;;;;;;5051262;28;20463;-70
2022/07/18 08:21:55;;;;;;;5.47;2.42;;;;;;;;;;5050730;28;20064;-67
2022/07/18 08:24:21;;;;;;;3.08;1.90;;;;;;;;;;5048721;28;20076;-68
2022/07/18 08:26:46;;;;;;;7.63;2.22;;;;;;;;;;5048447;28;20025;-68
2022/07/18 08:29:11;;;;;;;9.90;2.85;;;;;;;;;;5049431;28;20067;-69
2022/07/18 08:31:37;;;;;;;4.47;2.22;;;;;;;;;;5051760;28;20032;-69
2022/07/18 08:34:02;;;;;;;4.75;2.67;;;;;;;;;;5034712;28;20120;-68
2022/07/18 08:36:27;;;;;;;3.35;2.08;;;;;;;;;;5018681;28;20032;-69
2022/07/18 08:38:53;;;;;;;3.53;2.10;;;;;;;;;;5051297;28;20052;-70
2022/07/18 08:41:21;;;;;;;3.47;1.70;;;;;;;;;;5053869;28;20036;-70
2022/07/18 08:43:47;;;;;;;7.03;2.05;;;;;;;;;;5056047;28;20021;-71
2022/07/18 08:46:13;;;;;;;3.00;2.60;;;;;;;;;;5052980;28;20075;-70
2022/07/18 08:48:40;;;;;;;3.58;2.60;;;;;;;;;;5052159;28;20062;-70
2022/07/18 08:51:05;;;;;;;6.15;2.20;;;;;;;;;;5053700;28;20021;-71
2022/07/18 08:53:32;;;;;;;3.90;1.95;;;;;;;;;;5054042;28;20391;-68
2022/07/18 08:55:57;;;;;;;2.97;2.22;;;;;;;;;;5054739;28;20024;-69
2022/07/18 08:58:22;;;;;;;5.53;2.58;;;;;;;;;;5052794;28;20024;-69
2022/07/18 09:00:48;;;;;;;4.57;2.40;;;;;;;;;;5052553;28;20565;-69
2022/07/18 09:03:14;;;;;;;3.92;2.38;;;;;;;;;;5054493;28;20590;-69
2022/07/18 09:05:41;;;;;;;3.88;2.78;;;;;;;;;;5054609;28;20042;-69
2022/07/18 09:08:17;;;;;;;3.97;2.40;;;;;;;;;;5053662;28;20538;-69
2022/07/18 09:10:51;;;;;;;5.13;2.42;;;;;;;;;;5054245;28;20580;-69
2022/07/18 09:13:17;;;;;;;3.35;2.30;;;;;;;;;;5054893;28;20122;-69
2022/07/18 09:15:58;;;;;;;3.95;2.53;;;;;;;;;;5055245;28;20531;-70
2022/07/18 09:18:30;;;;;;;4.10;3.50;;;;;;;;;;5053551;28;20035;-69
2022/07/18 09:21:01;;;;;;;3.13;2.83;;;;;;;;;;5054448;28;20112;-69
2022/07/18 09:23:27;;;;;;;3.58;2.30;;;;;;;;;;5053777;28;20103;-69
2022/07/18 09:25:53;;;;;;;3.50;2.65;;;;;;;;;;5055226;28;20111;-69
2022/07/18 09:28:18;;;;;;;4.18;2.42;;;;;;;;;;5036108;28;20506;-69
2022/07/18 09:30:43;;;;;;;6.18;2.58;;;;;;;;;;5035637;28;20040;-69
2022/07/18 09:33:10;;;;;;;23.40;12.93;;;;;;;;;;5051504;28;20028;-69
2022/07/18 09:35:36;;;;;;;7.07;4.45;;;;;;;;;;5052198;28;20028;-69
2022/07/18 09:38:07;;;;;;;3.97;2.75;;;;;;;;;;5050766;28;20025;-71
2022/07/18 09:40:36;;;;;;;3.70;2.83;;;;;;;;;;5053123;28;20029;-70
2022/07/18 09:43:06;;;;;;;4.88;2.00;;;;;;;;;;5044809;28;20094;-70
2022/07/18 09:45:32;;;;;;;5.10;2.63;;;;;;;;;;5052032;28;20049;-70
2022/07/18 09:48:07;;;;;;;6.40;2.78;;;;;;;;;;5050110;28;20031;-71
2022/07/18 09:50:34;;;;;;;5.45;2.63;;;;;;;;;;5052678;28;20036;-68
2022/07/18 09:53:23;;;;;;;6.38;2.42;;;;;;;;;;5051438;28;20029;-68
2022/07/18 09:55:49;;;;;;;4.70;2.40;;;;;;;;;;5052344;28;20028;-68
2022/07/18 09:58:16;;;;;;;2.88;2.45;;;;;;;;;;5052674;28;20071;-70
2022/07/18 10:00:41;;;;;;;5.93;2.55;;;;;;;;;;5050521;28;20447;-70
2022/07/18 10:03:07;;;;;;;2.53;2.33;;;;;;;;;;5050051;28;20021;-69
2022/07/18 10:05:34;;;;;;;2.55;2.35;;;;;;;;;;5052332;28;20020;-69
2022/07/18 10:08:00;;;;;;;3.60;2.30;;;;;;;;;;5053838;28;20039;-69
2022/07/18 10:10:26;;;;;;;6.53;2.33;;;;;;;;;;5037284;28;20028;-68
2022/07/18 10:12:53;;;;;;;2.88;2.55;;;;;;;;;;5050874;28;20067;-70
2022/07/18 10:15:23;;;;;;;4.38;2.13;;;;;;;;;;5052232;28;20451;-69
2022/07/18 10:17:48;;;;;;;2.63;2.20;;;;;;;;;;5051409;28;20044;-69
2022/07/18 10:20:14;;;;;;;4.05;2.67;;;;;;;;;;5038196;28;20029;-70
2022/07/18 10:22:43;;;;;;;3.65;2.50;;;;;;;;;;5053079;28;20425;-69
2022/07/18 10:25:12;;;;;;;5.72;2.80;;;;;;;;;;5051822;28;20452;-69
2022/07/18 10:27:50;;;;;;;4.00;2.47;;;;;;;;;;5052364;28;20087;-70
2022/07/18 10:30:16;;;;;;;5.88;2.38;;;;;;;;;;5036189;28;20040;-70
2022/07/18 10:32:42;;;;;;;2.70;2.50;;;;;;;;;;5051290;28;20073;-71
2022/07/18 10:35:08;;;;;;;5.35;3.00;;;;;;;;;;5050324;28;20035;-70
2022/07/18 10:37:33;;;;;;;3.95;2.25;;;;;;;;;;5052289;28;20028;-70
2022/07/18 10:40:19;;;;;;;4.10;2.60;;;;;;;;;;5072989;28;20059;-69
2022/07/18 10:42:44;;;;;;;3.70;2.17;;;;;;;;;;5075109;28;20415;-70
2022/07/18 10:45:36;;;;;;;3.08;2.72;;;;;;;;;;5071186;28;20047;-70
2022/07/18 10:48:21;;;;;;;3.35;2.17;;;;;;;;;;5078373;28;20051;-70
2022/07/18 10:50:59;;;;;;;3.00;2.78;;;;;;;;;;5069956;28;20528;-70
2022/07/18 10:53:44;;;;;;;3.38;2.65;;;;;;;;;;5072967;28;20032;-70
2022/07/18 10:56:09;;;;;;;3.10;2.60;;;;;;;;;;5071431;28;20073;-70
2022/07/18 10:58:38;;;;;;;3.25;2.30;;;;;;;;;;5072025;28;20445;-69
2022/07/18 11:01:07;;;;;;;2.22;1.98;;;;;;;;;;5071217;28;20046;-70
2022/07/18 11:03:32;;;;;;;3.70;3.35;;;;;;;;;;5069758;28;20430;-70
2022/07/18 11:05:58;;;;;;;3.17;2.78;;;;;;;;;;5070365;28;20051;-70
2022/07/18 11:08:24;;;;;;;3.10;2.30;;;;;;;;;;5072998;28;20023;-69
2022/07/18 11:11:01;;;;;;;3.60;2.03;;;;;;;;;;5072744;28;20034;-70
2022/07/18 11:13:30;;;;;;;3.72;2.70;;;;;;;;;;5070225;28;20706;-70
2022/07/18 11:15:55;;;;;;;2.63;2.28;;;;;;;;;;5070689;28;20027;-68
2022/07/18 11:18:21;;;;;;;3.22;3.00;;;;;;;;;;5071013;28;20088;-69
2022/07/18 11:20:47;;;;;;;2.13;2.03;;;;;;;;;;5072482;28;20031;-68
2022/07/18 11:23:23;;;;;;;7.25;3.15;;;;;;;;;;5072051;28;20027;-70
2022/07/18 11:25:49;;;;;;;4.80;3.28;;;;;;;;;;5071983;28;20115;-71
2022/07/18 11:28:15;;;;;;;3.38;2.90;;;;;;;;;;5069581;28;20028;-70
2022/07/18 11:30:41;;;;;;;2.85;2.65;;;;;;;;;;5069519;28;20087;-69
2022/07/18 11:33:20;;;;;;;4.35;2.72;;;;;;;;;;5071993;28;20566;-69
2022/07/18 11:35:45;;;;;;;3.03;2.40;;;;;;;;;;5073638;28;20100;-69
2022/07/18 11:38:10;;;;;;;2.17;2.03;;;;;;;;;;5068046;28;20052;-68
2022/07/18 11:40:45;;;;;;;4.72;2.92;;;;;;;;;;5051084;28;20076;-69
2022/07/18 11:43:10;;;;;;;3.03;2.17;;;;;;;;;;5049045;28;20031;-69
2022/07/18 11:45:36;;;;;;;2.78;2.58;;;;;;;;;;5049639;28;20033;-69
2022/07/18 11:48:01;;;;;;;3.13;2.83;;;;;;;;;;5051261;28;20036;-69
2022/07/18 11:50:34;;;;;;;4.43;2.53;;;;;;;;;;5049892;28;20024;-69
2022/07/18 11:52:59;;;;;;;2.78;2.45;;;;;;;;;;5050322;28;20111;-69
2022/07/18 11:55:36;;;;;;;2.65;2.40;;;;;;;;;;5033701;28;20016;-69
2022/07/18 11:58:11;;;;;;;3.65;2.60;;;;;;;;;;5051813;28;20094;-68
2022/07/18 12:00:37;;;;;;;3.25;2.70;;;;;;;;;;5051199;28;20036;-68
2022/07/18 12:03:02;;;;;;;4.35;2.95;;;;;;;;;;5051853;28;20368;-68
2022/07/18 12:05:31;;;;;;;6.03;2.50;;;;;;;;;;5051533;28;20311;-71
2022/07/18 12:07:56;;;;;;;3.20;2.80;;;;;;;;;;5051036;28;20039;-71
2022/07/18 12:10:22;;;;;;;4.47;2.70;;;;;;;;;;5034993;28;20033;-68
2022/07/18 12:12:47;;;;;;;3.08;2.85;;;;;;;;;;5039715;28;20024;-70
2022/07/18 12:15:13;;;;;;;7.55;3.17;;;;;;;;;;5037953;28;20384;-69
2022/07/18 12:17:45;;;;;;;4.32;4.05;;;;;;;;;;5055544;28;20487;-69
2022/07/18 12:20:16;;;;;;;3.35;3.00;;;;;;;;;;5054638;28;20054;-70
2022/07/18 12:23:00;;;;;;;5.22;3.08;;;;;;;;;;5054231;28;20378;-69
2022/07/18 12:25:44;;;;;;;3.53;2.97;;;;;;;;;;5054577;28;20029;-68
2022/07/18 12:28:10;;;;;;;;;;;;;;;;;;5055677;28;20354;-70
2022/07/18 12:30:35;;;;;;;3.20;2.70;;;;;;;;;;5046390;28;19924;-69
2022/07/18 12:33:06;;;;;;;3.00;2.70;;;;;;;;;;5054179;28;20329;-69
2022/07/18 12:35:34;;;;;;;3.47;2.58;;;;;;;;;;5046679;28;20390;-69
2022/07/18 12:38:03;;;;;;;4.57;2.75;;;;;;;;;;5054817;28;20594;-69
2022/07/18 12:40:40;;;;;;;3.80;2.70;;;;;;;;;;5051360;28;20031;-69
2022/07/18 12:43:07;;;;;;;3.97;3.38;;;;;;;;;;5052170;28;20158;-68
2022/07/18 12:45:32;;;;;;;4.45;3.03;;;;;;;;;;5051656;28;20440;-68
2022/07/18 12:47:57;;;;;;;5.18;2.90;;;;;;;;;;5054019;28;20578;-69
2022/07/18 12:50:22;;;;;;;3.05;2.75;;;;;;;;;;5052470;28;20033;-69
2022/07/18 12:52:48;;;;;;;8.80;3.35;;;;;;;;;;5052171;28;20039;-69
2022/07/18 12:55:13;;;;;;;5.10;2.97;;;;;;;;;;5052642;28;20048;-68
2022/07/18 12:57:38;;;;;;;3.78;3.30;;;;;;;;;;5054829;28;20044;-70
2022/07/18 13:00:04;;;;;;;5.10;2.83;;;;;;;;;;5054478;28;20420;-68
2022/07/18 13:02:29;;;;;;;2.78;2.63;;;;;;;;;;5052960;28;20029;-69
2022/07/18 13:04:54;;;;;;;2.90;2.70;;;;;;;;;;5051288;28;20462;-70
2022/07/18 13:07:20;;;;;;;4.95;3.20;;;;;;;;;;5036430;28;20036;-70
2022/07/18 13:09:45;;;;;;;3.70;3.10;;;;;;;;;;5054345;28;20065;-68
2022/07/18 13:12:10;;;;;;;2.65;2.38;;;;;;;;;;5053410;28;20409;-70
2022/07/18 13:14:35;;;;;;;2.63;2.47;;;;;;;;;;5051590;28;20029;-68
2022/07/18 13:17:01;;;;;;;4.40;3.15;;;;;;;;;;5035071;28;20021;-69
2022/07/18 13:19:26;;;;;;;3.35;2.80;;;;;;;;;;5053875;28;20040;-71
2022/07/18 13:21:51;;;;;;;3.45;2.60;;;;;;;;;;5020506;28;20036;-70
2022/07/18 13:24:17;;;;;;;5.00;3.25;;;;;;;;;;5055850;28;20087;-69
2022/07/18 13:26:42;;;;;;;3.78;2.78;;;;;;;;;;5052666;28;20399;-69
2022/07/18 13:29:07;;;;;;;2.75;2.55;;;;;;;;;;5052237;28;20041;-70
2022/07/18 13:31:33;;;;;;;6.40;3.40;;;;;;;;;;5053438;28;20471;-70
2022/07/18 13:33:58;;;;;;;7.32;4.90;;;;;;;;;;5052184;28;20028;-70
2022/07/18 13:36:24;;;;;;;3.00;2.88;;;;;;;;;;5053153;28;20036;-70
2022/07/18 13:38:49;;;;;;;3.40;3.20;;;;;;;;;;5050855;28;20496;-69
2022/07/18 13:41:14;;;;;;;3.63;3.17;;;;;;;;;;5051818;28;20540;-70
2022/07/18 13:43:40;;;;;;;3.35;3.05;;;;;;;;;;5053275;28;20029;-69
2022/07/18 13:46:06;;;;;;;5.47;3.65;;;;;;;;;;5053448;28;20463;-69
2022/07/18 13:48:31;;;;;;;3.58;2.88;;;;;;;;;;5050936;28;20107;-70
2022/07/18 13:50:56;;;;;;;4.05;2.70;;;;;;;;;;5050532;28;20517;-70
2022/07/18 13:53:22;;;;;;;3.17;2.90;;;;;;;;;;5053365;28;20066;-69
2022/07/18 13:55:47;;;;;;;6.05;2.88;;;;;;;;;;5051946;28;20021;-68
2022/07/18 13:58:12;;;;;;;3.20;2.80;;;;;;;;;;5049293;28;20040;-69
2022/07/18 14:00:37;;;;;;;4.05;3.20;;;;;;;;;;5054104;28;20807;-68
2022/07/18 14:03:03;;;;;;;4.10;3.38;;;;;;;;;;5037581;28;20458;-69
2022/07/18 14:05:29;;;;;;;2.85;2.63;;;;;;;;;;5053588;28;20083;-67
2022/07/18 14:07:54;;;;;;;2.47;2.38;;;;;;;;;;5052901;28;20032;-69
2022/07/18 14:10:19;;;;;;;3.58;2.95;;;;;;;;;;5052735;28;20479;-69
2022/07/18 14:12:45;;;;;;;4.57;3.53;;;;;;;;;;5052929;28;20482;-69
2022/07/18 14:15:10;;;;;;;4.15;2.80;;;;;;;;;;5035677;28;20071;-69
2022/07/18 14:17:36;;;;;;;6.90;3.10;;;;;;;;;;5052504;28;20518;-69
2022/07/18 14:20:01;;;;;;;3.03;2.80;;;;;;;;;;5034801;28;20108;-70
2022/07/18 14:22:26;;;;;;;3.15;2.63;;;;;;;;;;5052809;28;20128;-69
2022/07/18 14:24:51;;;;;;;5.68;3.08;;;;;;;;;;5052446;28;20036;-69
2022/07/18 14:27:17;;;;;;;4.32;3.47;;;;;;;;;;5052161;28;20025;-70
2022/07/18 14:29:42;;;;;;;3.55;2.90;;;;;;;;;;5052236;28;20041;-70
2022/07/18 14:32:07;;;;;;;7.25;3.80;;;;;;;;;;5053278;28;20029;-70
2022/07/18 14:34:33;;;;;;;3.10;2.80;;;;;;;;;;5052179;28;20025;-69
2022/07/18 14:36:58;;;;;;;3.25;3.05;;;;;;;;;;5053626;28;20029;-70
2022/07/18 14:39:23;;;;;;;3.00;2.90;;;;;;;;;;5053226;28;20049;-70